createdAt,value
2018-02-10T00:00:31.416Z,4.00
2018-02-10T00:02:59.686Z,4.00
2018-02-10T00:05:27.212Z,4.00
2018-02-10T00:07:54.723Z,4.00
2018-02-10T00:10:22.257Z,4.00
2018-02-10T00:12:49.779Z,4.00
2018-02-10T00:15:17.352Z,4.00
2018-02-10T00:17:44.847Z,4.00
2018-02-10T00:20:13.182Z,4.00
2018-02-10T00:22:40.712Z,3.90
2018-02-10T00:25:08.225Z,3.90
2018-02-10T00:27:36.523Z,3.90
2018-02-10T00:30:04.042Z,3.90
2018-02-10T00:32:31.559Z,3.90
2018-02-10T00:34:59.070Z,3.90
2018-02-10T00:37:28.080Z,3.90
2018-02-10T00:39:56.367Z,4.00
2018-02-10T00:42:23.882Z,3.90
2018-02-10T00:44:51.430Z,4.00
2018-02-10T00:47:18.926Z,4.00
2018-02-10T00:49:47.196Z,4.00
2018-02-10T00:52:15.523Z,4.00
2018-02-10T00:54:43.063Z,4.00
2018-02-10T00:57:10.567Z,4.00
2018-02-10T00:59:38.063Z,4.00
2018-02-10T01:02:05.606Z,4.00
2018-02-10T01:04:33.859Z,4.00
2018-02-10T01:07:01.394Z,3.90
2018-02-10T01:09:28.900Z,4.00
2018-02-10T01:11:57.196Z,4.00
2018-02-10T01:14:24.710Z,4.00
2018-02-10T01:16:53.018Z,4.00
2018-02-10T01:19:21.330Z,4.00
2018-02-10T01:21:48.838Z,4.00
2018-02-10T01:24:17.129Z,4.00
2018-02-10T01:26:44.623Z,4.00
2018-02-10T01:29:12.135Z,4.00
2018-02-10T01:31:39.637Z,4.00
2018-02-10T01:34:07.164Z,4.00
2018-02-10T01:36:34.665Z,4.00
2018-02-10T01:39:02.191Z,4.00
2018-02-10T01:41:29.733Z,4.00
2018-02-10T01:43:57.232Z,4.00
2018-02-10T01:46:24.768Z,4.00
2018-02-10T01:48:52.261Z,4.00
2018-02-10T01:51:19.781Z,4.00
2018-02-10T01:53:47.287Z,4.00
2018-02-10T01:56:14.828Z,4.00
2018-02-10T01:58:43.126Z,4.00
2018-02-10T02:01:10.668Z,3.90
2018-02-10T02:03:38.194Z,4.00
2018-02-10T02:06:05.725Z,4.00
2018-02-10T02:08:33.999Z,4.00
2018-02-10T02:11:02.260Z,4.00
2018-02-10T02:13:30.525Z,4.00
2018-02-10T02:15:58.054Z,3.90
2018-02-10T02:18:25.569Z,4.00
2018-02-10T02:20:53.090Z,4.00
2018-02-10T02:23:20.630Z,3.90
2018-02-10T02:25:48.142Z,3.90
2018-02-10T02:28:15.637Z,3.90
2018-02-10T02:30:43.176Z,3.90
2018-02-10T02:33:10.692Z,3.90
2018-02-10T02:35:38.995Z,3.90
2018-02-10T02:38:06.489Z,3.90
2018-02-10T02:40:34.008Z,3.90
2018-02-10T02:43:01.535Z,3.90
2018-02-10T02:45:29.073Z,3.90
2018-02-10T02:47:56.626Z,3.90
2018-02-10T02:50:24.111Z,3.90
2018-02-10T02:52:51.650Z,3.90
2018-02-10T02:55:19.167Z,3.90
2018-02-10T02:57:46.727Z,4.00
2018-02-10T03:00:14.224Z,4.00
2018-02-10T03:02:41.725Z,4.00
2018-02-10T03:05:09.282Z,4.00
2018-02-10T03:07:36.782Z,4.00
2018-02-10T03:10:04.330Z,4.00
2018-02-10T03:12:31.849Z,4.00
2018-02-10T03:14:59.403Z,3.90
2018-02-10T03:17:27.679Z,3.90
2018-02-10T03:19:55.963Z,3.90
2018-02-10T03:22:23.510Z,3.90
2018-02-10T03:24:51.795Z,3.80
2018-02-10T03:27:19.309Z,3.80
2018-02-10T03:29:46.813Z,3.90
2018-02-10T03:32:15.288Z,3.90
2018-02-10T03:34:42.788Z,4.00
2018-02-10T03:37:10.332Z,4.00
2018-02-10T03:39:37.826Z,4.00
2018-02-10T03:42:05.372Z,4.10
2018-02-10T03:44:32.879Z,4.10
2018-02-10T03:47:00.380Z,4.00
2018-02-10T03:49:27.921Z,4.00
2018-02-10T03:51:55.411Z,4.00
2018-02-10T03:54:22.931Z,4.10
2018-02-10T03:56:50.437Z,4.00
2018-02-10T03:59:17.965Z,4.00
2018-02-10T04:01:45.463Z,4.00
2018-02-10T04:04:13.753Z,4.00
2018-02-10T04:06:41.248Z,4.00
2018-02-10T04:09:08.782Z,4.00
2018-02-10T04:11:36.311Z,4.00
2018-02-10T04:14:04.575Z,4.00
2018-02-10T04:16:32.099Z,4.00
2018-02-10T04:18:59.609Z,4.00
2018-02-10T04:21:27.913Z,4.00
2018-02-10T04:23:55.431Z,4.00
2018-02-10T04:26:23.702Z,4.00
2018-02-10T04:28:52.003Z,4.00
2018-02-10T04:31:19.500Z,4.00
2018-02-10T04:33:47.036Z,4.00
2018-02-10T04:36:14.553Z,4.00
2018-02-10T04:38:42.086Z,4.00
2018-02-10T04:41:09.589Z,4.00
2018-02-10T04:43:37.080Z,3.90
2018-02-10T04:46:05.036Z,3.90
2018-02-10T04:48:32.571Z,3.90
2018-02-10T04:51:00.132Z,3.90
2018-02-10T04:53:27.631Z,3.90
2018-02-10T04:55:55.160Z,4.00
2018-02-10T04:58:22.655Z,4.00
2018-02-10T05:00:50.179Z,4.00
2018-02-10T05:03:17.681Z,3.90
2018-02-10T05:05:45.257Z,3.90
2018-02-10T05:08:12.735Z,3.90
2018-02-10T05:10:40.256Z,3.80
2018-02-10T05:13:07.774Z,3.80
2018-02-10T05:15:35.271Z,3.80
2018-02-10T05:18:02.784Z,3.80
2018-02-10T05:20:30.285Z,3.80
2018-02-10T05:22:57.818Z,3.90
2018-02-10T05:25:25.308Z,3.90
2018-02-10T05:27:52.808Z,3.90
2018-02-10T05:30:20.324Z,3.80
2018-02-10T05:32:47.866Z,3.80
2018-02-10T05:35:15.389Z,3.70
2018-02-10T05:37:42.903Z,3.70
2018-02-10T05:40:11.197Z,3.70
2018-02-10T05:42:38.691Z,3.70
2018-02-10T05:45:06.240Z,3.70
2018-02-10T05:47:33.798Z,3.70
2018-02-10T05:50:01.310Z,3.80
2018-02-10T05:52:29.611Z,3.80
2018-02-10T05:54:57.156Z,3.80
2018-02-10T05:57:25.434Z,3.90
2018-02-10T05:59:53.696Z,3.90
2018-02-10T06:02:21.979Z,3.90
2018-02-10T06:04:50.311Z,3.90
2018-02-10T06:07:17.836Z,3.90
2018-02-10T06:09:45.368Z,3.90
2018-02-10T06:12:13.620Z,3.90
2018-02-10T06:14:41.135Z,3.90
2018-02-10T06:17:08.675Z,3.90
2018-02-10T06:19:36.199Z,3.80
2018-02-10T06:22:03.754Z,3.80
2018-02-10T06:24:31.259Z,3.80
2018-02-10T06:26:58.801Z,3.80
2018-02-10T06:29:26.300Z,3.80
2018-02-10T06:31:53.822Z,3.80
2018-02-10T06:34:21.363Z,3.80
2018-02-10T06:36:49.665Z,3.80
2018-02-10T06:39:17.156Z,3.80
2018-02-10T06:41:44.693Z,3.80
2018-02-10T06:44:12.195Z,3.80
2018-02-10T06:46:40.476Z,3.80
2018-02-10T06:49:08.004Z,3.80
2018-02-10T06:51:35.496Z,3.80
2018-02-10T06:54:03.808Z,3.80
2018-02-10T06:56:31.320Z,3.80
2018-02-10T06:58:58.843Z,3.80
2018-02-10T07:01:26.343Z,3.80
2018-02-10T07:03:54.672Z,3.90
2018-02-10T07:06:22.179Z,3.90
2018-02-10T07:08:49.715Z,3.90
2018-02-10T07:11:17.217Z,3.90
2018-02-10T07:13:44.751Z,3.90
2018-02-10T07:16:13.043Z,4.00
2018-02-10T07:18:40.551Z,4.00
2018-02-10T07:21:08.182Z,4.00
2018-02-10T07:23:36.460Z,4.00
2018-02-10T07:26:04.009Z,4.00
2018-02-10T07:28:31.504Z,4.00
2018-02-10T07:30:59.034Z,4.10
2018-02-10T07:33:26.535Z,4.10
2018-02-10T07:35:54.041Z,4.10
2018-02-10T07:38:21.556Z,4.10
2018-02-10T07:40:49.056Z,4.10
2018-02-10T07:43:16.580Z,4.10
2018-02-10T07:45:44.844Z,4.10
2018-02-10T07:48:12.369Z,4.10
2018-02-10T07:50:39.879Z,4.10
2018-02-10T07:53:08.179Z,4.20
2018-02-10T07:55:35.703Z,4.20
2018-02-10T07:58:04.017Z,4.20
2018-02-10T08:00:31.518Z,4.20
2018-02-10T08:02:59.131Z,4.20
2018-02-10T08:05:26.687Z,4.20
2018-02-10T08:07:54.196Z,4.20
2018-02-10T08:10:21.776Z,4.30
2018-02-10T08:12:50.076Z,4.30
2018-02-10T08:15:17.639Z,4.30
2018-02-10T08:17:45.197Z,4.30
2018-02-10T08:20:12.695Z,4.30
2018-02-10T08:22:40.210Z,4.30
2018-02-10T08:25:07.707Z,4.30
2018-02-10T08:27:35.245Z,4.30
2018-02-10T08:30:02.744Z,4.30
2018-02-10T08:32:30.323Z,4.40
2018-02-10T08:34:57.826Z,4.40
2018-02-10T08:37:25.368Z,4.40
2018-02-10T08:39:52.900Z,4.40
2018-02-10T08:42:20.396Z,4.40
2018-02-10T08:44:47.944Z,4.50
2018-02-10T08:47:15.441Z,4.50
2018-02-10T08:49:42.969Z,4.50
2018-02-10T08:52:10.462Z,4.50
2018-02-10T08:54:38.751Z,4.50
2018-02-10T08:57:07.044Z,4.60
2018-02-10T08:59:34.554Z,4.60
2018-02-10T09:02:02.097Z,4.60
2018-02-10T09:04:29.602Z,4.70
2018-02-10T09:06:57.900Z,4.80
2018-02-10T09:09:25.415Z,4.70
2018-02-10T09:11:54.017Z,4.80
2018-02-10T09:14:22.292Z,4.80
2018-02-10T09:16:50.557Z,4.90
2018-02-10T09:19:18.108Z,4.90
2018-02-10T09:21:46.447Z,4.90
2018-02-10T09:24:13.983Z,4.90
2018-02-10T09:26:41.531Z,5.00
2018-02-10T09:29:09.075Z,5.00
2018-02-10T09:31:37.344Z,5.00
2018-02-10T09:34:05.671Z,5.10
2018-02-10T09:36:33.205Z,5.10
2018-02-10T09:39:00.718Z,5.10
2018-02-10T09:41:28.250Z,5.20
2018-02-10T09:43:55.775Z,5.20
2018-02-10T09:46:23.304Z,5.20
2018-02-10T09:48:50.891Z,5.20
2018-02-10T09:51:18.421Z,5.20
2018-02-10T09:53:45.986Z,5.20
2018-02-10T09:56:14.591Z,5.20
2018-02-10T09:58:42.225Z,5.20
2018-02-10T10:01:10.514Z,5.30
2018-02-10T10:03:38.076Z,5.20
2018-02-10T10:06:06.372Z,5.30
2018-02-10T10:08:33.964Z,5.30
2018-02-10T10:11:01.480Z,5.30
2018-02-10T10:13:29.020Z,5.30
2018-02-10T10:15:57.315Z,5.30
2018-02-10T10:18:24.852Z,5.30
2018-02-10T10:20:53.187Z,5.30
2018-02-10T10:23:20.683Z,5.30
2018-02-10T10:25:49.037Z,5.40
2018-02-10T10:28:16.603Z,5.40
2018-02-10T10:30:44.144Z,5.50
2018-02-10T10:33:11.680Z,5.50
2018-02-10T10:35:39.285Z,5.60
2018-02-10T10:38:06.857Z,5.70
2018-02-10T10:40:34.517Z,5.80
2018-02-10T10:43:03.544Z,6.00
2018-02-10T10:45:31.085Z,6.10
2018-02-10T10:47:58.603Z,6.20
2018-02-10T10:50:26.194Z,6.20
2018-02-10T10:52:53.774Z,6.30
2018-02-10T10:55:21.274Z,6.30
2018-02-10T10:57:48.815Z,6.40
2018-02-10T11:00:18.368Z,6.40
2018-02-10T11:02:46.669Z,6.50
2018-02-10T11:05:14.190Z,6.50
2018-02-10T11:07:41.735Z,6.50
2018-02-10T11:10:09.232Z,6.40
2018-02-10T11:12:36.744Z,6.40
2018-02-10T11:15:04.291Z,6.30
2018-02-10T11:17:31.797Z,6.30
2018-02-10T11:19:59.323Z,6.20
2018-02-10T11:22:26.824Z,6.20
2018-02-10T11:24:54.350Z,6.20
2018-02-10T11:27:22.629Z,6.20
2018-02-10T11:29:50.947Z,6.20
2018-02-10T11:32:18.489Z,6.20
2018-02-10T11:34:46.041Z,6.20
2018-02-10T11:37:13.588Z,6.20
2018-02-10T11:39:41.852Z,6.20
2018-02-10T11:42:10.123Z,6.20
2018-02-10T11:44:38.418Z,6.20
2018-02-10T11:47:05.927Z,6.20
2018-02-10T11:49:33.471Z,6.20
2018-02-10T11:52:00.980Z,6.20
2018-02-10T11:54:29.299Z,6.10
2018-02-10T11:56:56.867Z,6.10
2018-02-10T11:59:24.411Z,6.10
2018-02-10T12:01:51.919Z,6.00
2018-02-10T12:04:20.250Z,6.00
2018-02-10T12:06:47.804Z,5.90
2018-02-10T12:09:15.340Z,5.90
2018-02-10T12:11:42.878Z,5.90
2018-02-10T12:14:11.161Z,5.90
2018-02-10T12:16:39.454Z,5.90
2018-02-10T12:19:06.967Z,5.90
2018-02-10T12:21:34.489Z,5.90
2018-02-10T12:24:02.027Z,5.90
2018-02-10T12:26:29.545Z,5.90
2018-02-10T12:28:57.095Z,5.90
2018-02-10T12:31:24.607Z,6.00
2018-02-10T12:33:52.146Z,5.90
2018-02-10T12:36:20.418Z,6.00
2018-02-10T12:38:48.720Z,6.00
2018-02-10T12:41:16.232Z,6.00
2018-02-10T12:43:43.758Z,6.00
2018-02-10T12:46:11.310Z,6.00
2018-02-10T12:51:43.360Z,5.90
2018-02-10T12:54:10.908Z,5.90
2018-02-10T12:56:39.177Z,5.90
2018-02-10T12:59:07.505Z,6.00
2018-02-10T13:01:35.042Z,6.00
2018-02-10T13:04:02.574Z,6.00
2018-02-10T13:06:30.888Z,6.00
2018-02-10T13:08:58.429Z,6.00
2018-02-10T13:11:25.984Z,6.00
2018-02-10T13:13:53.509Z,6.00
2018-02-10T13:16:21.072Z,6.10
2018-02-10T13:18:49.408Z,6.10
2018-02-10T13:21:16.927Z,6.10
2018-02-10T13:23:44.431Z,6.00
2018-02-10T13:26:11.992Z,6.00
2018-02-10T13:28:39.560Z,6.00
2018-02-10T13:31:07.065Z,6.00
2018-02-10T13:33:34.594Z,6.00
2018-02-10T13:36:02.900Z,5.90
2018-02-10T13:38:30.424Z,5.90
2018-02-10T13:40:57.965Z,5.90
2018-02-10T13:43:25.583Z,5.80
2018-02-10T13:45:53.135Z,5.80
2018-02-10T13:48:32.749Z,5.80
2018-02-10T13:51:01.024Z,5.80
2018-02-10T13:53:29.310Z,5.80
2018-02-10T13:55:57.882Z,5.70
2018-02-10T13:58:26.157Z,5.70
2018-02-10T14:00:54.498Z,5.70
2018-02-10T14:03:22.068Z,5.70
2018-02-10T14:05:49.638Z,5.60
2018-02-10T14:08:17.156Z,5.60
2018-02-10T14:10:44.681Z,5.60
2018-02-10T14:13:12.198Z,5.50
2018-02-10T14:15:39.763Z,5.50
2018-02-10T14:18:07.270Z,5.50
2018-02-10T14:20:34.772Z,5.50
2018-02-10T14:23:02.308Z,5.50
2018-02-10T14:25:29.809Z,5.50
2018-02-10T14:27:58.104Z,5.30
2018-02-10T14:30:25.631Z,5.30
2018-02-10T14:32:53.182Z,5.30
2018-02-10T14:35:20.703Z,5.30
2018-02-10T14:37:48.228Z,5.30
2018-02-10T14:40:16.551Z,5.20
2018-02-10T14:42:44.047Z,5.20
2018-02-10T14:45:12.332Z,5.20
2018-02-10T14:47:40.635Z,5.20
2018-02-10T14:50:08.188Z,5.20
2018-02-10T14:52:35.699Z,5.20
2018-02-10T14:55:03.270Z,5.20
2018-02-10T14:57:30.763Z,5.20
2018-02-10T14:59:58.310Z,5.10
2018-02-10T15:02:25.848Z,5.10
2018-02-10T15:04:54.195Z,5.10
2018-02-10T15:07:21.746Z,5.10
2018-02-10T15:09:49.264Z,5.10
2018-02-10T15:12:16.809Z,5.10
2018-02-10T15:14:45.104Z,5.00
2018-02-10T15:17:12.629Z,5.00
2018-02-10T15:19:40.158Z,5.00
2018-02-10T15:22:07.662Z,5.00
2018-02-10T15:24:35.962Z,5.00
2018-02-10T15:27:03.484Z,5.00
2018-02-10T15:29:43.728Z,5.00
2018-02-10T15:32:23.038Z,5.00
2018-02-10T15:34:58.394Z,5.10
2018-02-10T15:37:25.916Z,5.00
2018-02-10T15:39:53.420Z,5.00
2018-02-10T15:42:21.728Z,5.00
2018-02-10T15:44:49.225Z,5.00
2018-02-10T15:47:16.775Z,5.00
2018-02-10T15:49:44.308Z,5.10
2018-02-10T15:52:11.896Z,5.10
2018-02-10T15:54:39.405Z,5.00
2018-02-10T15:57:07.694Z,5.10
2018-02-10T15:59:35.246Z,5.00
2018-02-10T16:02:02.817Z,5.00
2018-02-10T16:04:30.387Z,5.00
2018-02-10T16:06:57.911Z,5.00
2018-02-10T16:09:26.246Z,5.00
2018-02-10T16:14:57.309Z,5.00
2018-02-10T16:17:25.575Z,5.00
2018-02-10T16:19:53.110Z,5.00
2018-02-10T16:22:20.608Z,5.00
2018-02-10T16:24:48.884Z,5.00
2018-02-10T16:27:17.236Z,5.10
2018-02-10T16:29:44.772Z,5.00
2018-02-10T16:32:12.299Z,5.00
2018-02-10T16:34:39.824Z,5.00
2018-02-10T16:37:07.361Z,5.00
2018-02-10T16:39:34.983Z,5.00
2018-02-10T16:42:02.518Z,5.00
2018-02-10T16:44:30.072Z,5.00
2018-02-10T16:46:58.358Z,5.00
2018-02-10T16:49:25.897Z,5.00
2018-02-10T16:51:54.169Z,5.00
2018-02-10T16:54:22.464Z,5.00
2018-02-10T16:56:50.060Z,5.00
2018-02-10T16:59:17.567Z,5.00
2018-02-10T17:01:45.877Z,5.00
2018-02-10T17:04:13.396Z,5.00
2018-02-10T17:06:40.946Z,5.00
2018-02-10T17:09:08.789Z,5.00
2018-02-10T17:11:36.338Z,5.00
2018-02-10T17:14:03.859Z,5.00
2018-02-10T17:16:31.413Z,5.00
2018-02-10T17:18:59.778Z,5.00
2018-02-10T17:21:28.092Z,5.00
2018-02-10T17:23:55.669Z,5.00
2018-02-10T17:26:23.205Z,5.00
2018-02-10T17:28:50.754Z,5.00
2018-02-10T17:31:18.276Z,5.00
2018-02-10T17:33:45.841Z,5.00
2018-02-10T17:36:13.351Z,5.00
2018-02-10T17:38:40.875Z,4.90
2018-02-10T17:41:08.429Z,4.90
2018-02-10T17:43:36.735Z,5.00
2018-02-10T17:46:04.256Z,5.00
2018-02-10T17:48:32.542Z,5.00
2018-02-10T17:51:00.081Z,5.00
2018-02-10T17:53:28.359Z,5.00
2018-02-10T17:55:56.640Z,5.00
2018-02-10T17:58:24.957Z,5.00
2018-02-10T18:00:52.472Z,5.00
2018-02-10T18:03:20.752Z,5.10
2018-02-10T18:05:49.022Z,5.00
2018-02-10T18:08:17.345Z,5.10
2018-02-10T18:10:44.865Z,5.00
2018-02-10T18:13:13.166Z,5.00
2018-02-10T18:15:40.772Z,5.00
2018-02-10T18:18:08.335Z,5.00
2018-02-10T18:20:35.871Z,5.00
2018-02-10T18:23:03.398Z,5.00
2018-02-10T18:25:30.913Z,5.00
2018-02-10T18:27:59.248Z,5.00
2018-02-10T18:30:26.818Z,5.00
2018-02-10T18:32:54.378Z,5.10
2018-02-10T18:35:21.934Z,5.10
2018-02-10T18:37:49.447Z,5.10
2018-02-10T18:40:16.952Z,5.10
2018-02-10T18:42:44.483Z,5.00
2018-02-10T18:45:12.237Z,5.00
2018-02-10T18:47:39.767Z,5.00
2018-02-10T18:50:08.041Z,4.90
2018-02-10T18:52:36.360Z,5.00
2018-02-10T18:55:03.880Z,4.90
2018-02-10T18:57:32.185Z,4.90
2018-02-10T18:59:59.732Z,4.90
2018-02-10T19:02:27.251Z,4.90
2018-02-10T19:04:54.804Z,4.90
2018-02-10T19:07:22.348Z,4.80
2018-02-10T19:09:49.887Z,4.60
2018-02-10T19:12:17.417Z,4.60
2018-02-10T19:14:44.980Z,4.60
2018-02-10T19:17:12.472Z,4.60
2018-02-10T19:19:39.989Z,4.60
2018-02-10T19:22:07.586Z,4.70
2018-02-10T19:24:35.093Z,4.60
2018-02-10T19:27:03.381Z,4.70
2018-02-10T19:29:31.655Z,4.70
2018-02-10T19:31:59.192Z,4.70
2018-02-10T19:34:26.710Z,4.70
2018-02-10T19:36:54.266Z,4.70
2018-02-10T19:39:21.810Z,4.70
2018-02-10T19:41:49.368Z,4.70
2018-02-10T19:44:16.904Z,4.70
2018-02-10T19:46:44.524Z,4.70
2018-02-10T19:49:12.147Z,4.60
2018-02-10T19:51:39.688Z,4.60
2018-02-10T19:54:07.298Z,4.60
2018-02-10T19:56:34.854Z,4.50
2018-02-10T19:59:02.447Z,4.40
2018-02-10T20:01:30.767Z,4.40
2018-02-10T20:03:58.301Z,4.40
2018-02-10T20:06:25.859Z,4.40
2018-02-10T20:08:53.463Z,4.40
2018-02-10T20:11:21.008Z,4.30
2018-02-10T20:13:48.516Z,4.30
2018-02-10T20:16:16.825Z,4.30
2018-02-10T20:18:44.319Z,4.20
2018-02-10T20:21:11.851Z,4.20
2018-02-10T20:23:39.377Z,4.20
2018-02-10T20:26:06.949Z,4.20
2018-02-10T20:28:34.460Z,4.20
2018-02-10T20:31:02.007Z,4.10
2018-02-10T20:33:29.525Z,4.10
2018-02-10T20:35:57.064Z,4.10
2018-02-10T20:38:24.588Z,4.10
2018-02-10T20:40:52.132Z,4.00
2018-02-10T20:43:19.641Z,4.00
2018-02-10T20:45:47.169Z,4.00
2018-02-10T20:48:14.684Z,4.00
2018-02-10T20:50:42.235Z,4.10
2018-02-10T20:53:09.736Z,4.10
2018-02-10T20:55:37.285Z,4.20
2018-02-10T20:58:04.802Z,4.20
2018-02-10T21:00:32.361Z,4.20
2018-02-10T21:02:59.917Z,4.20
2018-02-10T21:05:27.471Z,4.20
2018-02-10T21:07:55.008Z,4.20
2018-02-10T21:10:23.288Z,4.30
2018-02-10T21:12:51.568Z,4.30
2018-02-10T21:15:19.117Z,4.30
2018-02-10T21:17:46.678Z,4.30
2018-02-10T21:20:14.967Z,4.30
2018-02-10T21:22:42.512Z,4.30
2018-02-10T21:25:10.800Z,4.40
2018-02-10T21:27:38.303Z,4.40
2018-02-10T21:30:05.861Z,4.40
2018-02-10T21:32:33.413Z,4.50
2018-02-10T21:35:00.956Z,4.50
2018-02-10T21:37:28.460Z,4.50
2018-02-10T21:39:56.006Z,4.50
2018-02-10T21:42:23.517Z,4.60
2018-02-10T21:44:51.081Z,4.60
2018-02-10T21:47:18.588Z,4.60
2018-02-10T21:49:46.136Z,4.50
2018-02-10T21:52:13.636Z,4.60
2018-02-10T21:54:41.151Z,4.50
2018-02-10T21:57:08.673Z,4.50
2018-02-10T21:59:36.201Z,4.50
2018-02-10T22:02:03.761Z,4.40
2018-02-10T22:04:31.285Z,4.40
2018-02-10T22:06:58.821Z,4.40
2018-02-10T22:09:26.308Z,4.40
2018-02-10T22:11:53.838Z,4.40
2018-02-10T22:14:21.365Z,4.40
2018-02-10T22:16:48.882Z,4.50
2018-02-10T22:19:16.400Z,4.60
2018-02-10T22:21:43.898Z,4.60
2018-02-10T22:24:12.195Z,4.70
2018-02-10T22:26:39.705Z,4.70
2018-02-10T22:29:07.246Z,4.70
2018-02-10T22:31:34.769Z,4.70
2018-02-10T22:34:02.303Z,4.80
2018-02-10T22:36:29.851Z,4.80
2018-02-10T22:38:57.367Z,4.80
2018-02-10T22:41:24.886Z,4.80
2018-02-10T22:43:53.163Z,4.80
2018-02-10T22:46:21.448Z,4.80
2018-02-10T22:48:49.717Z,4.70
2018-02-10T22:51:18.043Z,4.70
2018-02-10T22:53:45.569Z,4.60
2018-02-10T22:56:13.084Z,4.70
2018-02-10T22:58:40.600Z,4.70
2018-02-10T23:01:13.783Z,4.70
2018-02-10T23:03:41.303Z,4.70
2018-02-10T23:06:09.571Z,4.70
2018-02-10T23:08:37.118Z,4.70
2018-02-10T23:11:06.133Z,4.70
2018-02-10T23:13:34.454Z,4.70
2018-02-10T23:16:01.957Z,4.70
2018-02-10T23:18:30.281Z,4.70
2018-02-10T23:20:57.852Z,4.70
2018-02-10T23:23:25.358Z,4.70
2018-02-10T23:25:53.674Z,4.70
2018-02-10T23:28:21.185Z,4.70
2018-02-10T23:30:48.700Z,4.70
2018-02-10T23:33:16.228Z,4.70
2018-02-10T23:35:43.763Z,4.60
2018-02-10T23:38:12.043Z,4.60
2018-02-10T23:40:40.353Z,4.60
2018-02-10T23:43:07.863Z,4.60
2018-02-10T23:45:35.354Z,4.50
2018-02-10T23:48:02.881Z,4.50
2018-02-10T23:50:31.248Z,4.50
2018-02-10T23:52:58.766Z,4.50
2018-02-10T23:55:26.286Z,4.40
2018-02-10T23:57:54.580Z,4.40
